sensor_id;sensor_type;location;lat;lon;timestamp;pressure;altitude;pressure_sealevel;temperature;humidity
13765;BME280;6953;48.810;9.204;2023-12-20T00:01:19;98809.84;;;9.54;89.11
13765;BME280;6953;48.810;9.204;2023-12-20T00:03:44;98754.63;;;9.40;89.26
13765;BME280;6953;48.810;9.204;2023-12-20T00:06:10;98542.41;;;8.19;89.28
13765;BME280;6953;48.810;9.204;2023-12-20T00:08:35;98766.00;;;9.39;89.89
13765;BME280;6953;48.810;9.204;2023-12-20T00:11:00;98706.19;;;9.14;90.40
13765;BME280;6953;48.810;9.204;2023-12-20T00:13:25;98708.03;;;9.12;91.02
13765;BME280;6953;48.810;9.204;2023-12-20T00:15:51;98501.00;;;7.92;90.61
13765;BME280;6953;48.810;9.204;2023-12-20T00:18:16;98694.81;;;8.96;91.35
13765;BME280;6953;48.810;9.204;2023-12-20T00:20:41;98746.16;;;9.17;92.33
13765;BME280;6953;48.810;9.204;2023-12-20T00:23:07;98767.09;;;9.17;92.97
13765;BME280;6953;48.810;9.204;2023-12-20T00:25:34;98510.84;;;7.67;93.35
13765;BME280;6953;48.810;9.204;2023-12-20T00:28:00;98739.97;;;8.81;94.54
13765;BME280;6953;48.810;9.204;2023-12-20T00:30:25;98652.25;;;8.36;94.49
13765;BME280;6953;48.810;9.204;2023-12-20T00:32:51;98755.97;;;8.94;95.13
13765;BME280;6953;48.810;9.204;2023-12-20T00:35:16;98734.38;;;8.70;95.51
13765;BME280;6953;48.810;9.204;2023-12-20T00:37:45;98519.00;;;7.59;95.90
13765;BME280;6953;48.810;9.204;2023-12-20T00:40:10;98723.28;;;8.84;96.00
13765;BME280;6953;48.810;9.204;2023-12-20T00:42:36;98774.56;;;8.88;96.34
13765;BME280;6953;48.810;9.204;2023-12-20T00:45:01;98481.00;;;7.34;96.49
13765;BME280;6953;48.810;9.204;2023-12-20T00:47:28;98702.75;;;8.56;97.47
13765;BME280;6953;48.810;9.204;2023-12-20T00:49:53;98734.31;;;8.72;97.94
13765;BME280;6953;48.810;9.204;2023-12-20T00:52:18;98568.72;;;7.76;97.80
13765;BME280;6953;48.810;9.204;2023-12-20T00:54:44;98666.53;;;8.29;98.60
13765;BME280;6953;48.810;9.204;2023-12-20T00:57:09;98697.22;;;8.44;99.28
13765;BME280;6953;48.810;9.204;2023-12-20T00:59:35;98739.47;;;8.73;99.66
13765;BME280;6953;48.810;9.204;2023-12-20T01:02:01;98747.44;;;8.70;100.00
13765;BME280;6953;48.810;9.204;2023-12-20T01:04:26;98711.78;;;8.49;100.00
13765;BME280;6953;48.810;9.204;2023-12-20T01:06:52;98743.47;;;8.62;100.00
13765;BME280;6953;48.810;9.204;2023-12-20T01:09:17;98745.50;;;8.55;100.00
13765;BME280;6953;48.810;9.204;2023-12-20T01:11:43;98742.44;;;8.46;100.00
13765;BME280;6953;48.810;9.204;2023-12-20T01:14:09;98782.25;;;8.52;100.00
13765;BME280;6953;48.810;9.204;2023-12-20T01:16:34;98782.31;;;8.51;100.00
13765;BME280;6953;48.810;9.204;2023-12-20T01:18:59;98759.63;;;8.51;100.00
13765;BME280;6953;48.810;9.204;2023-12-20T01:21:25;98761.34;;;8.52;100.00
13765;BME280;6953;48.810;9.204;2023-12-20T01:23:50;98694.22;;;8.13;100.00
13765;BME280;6953;48.810;9.204;2023-12-20T01:26:16;98758.66;;;8.54;100.00
13765;BME280;6953;48.810;9.204;2023-12-20T01:28:42;98755.97;;;8.55;100.00
13765;BME280;6953;48.810;9.204;2023-12-20T01:31:07;98517.41;;;7.17;100.00
13765;BME280;6953;48.810;9.204;2023-12-20T01:33:32;98748.38;;;8.49;100.00
13765;BME280;6953;48.810;9.204;2023-12-20T01:35:58;98754.75;;;8.44;100.00
13765;BME280;6953;48.810;9.204;2023-12-20T01:38:23;98761.59;;;8.26;100.00
13765;BME280;6953;48.810;9.204;2023-12-20T01:40:48;98763.94;;;8.52;100.00
13765;BME280;6953;48.810;9.204;2023-12-20T01:43:13;98761.41;;;8.51;100.00
13765;BME280;6953;48.810;9.204;2023-12-20T01:45:39;98771.22;;;8.46;100.00
13765;BME280;6953;48.810;9.204;2023-12-20T01:48:05;98742.13;;;8.33;100.00
13765;BME280;6953;48.810;9.204;2023-12-20T01:50:31;98757.47;;;8.41;100.00
13765;BME280;6953;48.810;9.204;2023-12-20T01:53:01;98772.78;;;8.50;100.00
13765;BME280;6953;48.810;9.204;2023-12-20T01:55:29;98802.47;;;8.49;100.00
13765;BME280;6953;48.810;9.204;2023-12-20T01:57:57;98510.34;;;6.99;100.00
13765;BME280;6953;48.810;9.204;2023-12-20T02:00:23;98778.97;;;8.47;100.00
13765;BME280;6953;48.810;9.204;2023-12-20T02:02:53;98715.78;;;8.18;100.00
13765;BME280;6953;48.810;9.204;2023-12-20T02:05:18;98783.28;;;8.48;100.00
13765;BME280;6953;48.810;9.204;2023-12-20T02:07:43;98625.78;;;7.65;100.00
13765;BME280;6953;48.810;9.204;2023-12-20T02:10:09;98762.25;;;8.51;100.00
13765;BME280;6953;48.810;9.204;2023-12-20T02:12:34;98762.19;;;8.53;100.00
13765;BME280;6953;48.810;9.204;2023-12-20T02:15:00;98748.50;;;8.46;100.00
13765;BME280;6953;48.810;9.204;2023-12-20T02:17:26;98500.63;;;7.03;100.00
13765;BME280;6953;48.810;9.204;2023-12-20T02:19:52;98717.75;;;8.13;100.00
13765;BME280;6953;48.810;9.204;2023-12-20T02:22:17;98767.47;;;8.51;100.00
13765;BME280;6953;48.810;9.204;2023-12-20T02:24:43;98770.41;;;8.44;100.00
13765;BME280;6953;48.810;9.204;2023-12-20T02:27:08;98767.75;;;8.45;100.00
13765;BME280;6953;48.810;9.204;2023-12-20T02:29:34;98769.97;;;8.54;100.00
13765;BME280;6953;48.810;9.204;2023-12-20T02:32:00;98765.66;;;8.53;100.00
13765;BME280;6953;48.810;9.204;2023-12-20T02:34:25;98758.78;;;8.51;100.00
13765;BME280;6953;48.810;9.204;2023-12-20T02:36:50;98729.00;;;8.35;100.00
13765;BME280;6953;48.810;9.204;2023-12-20T02:39:16;98763.91;;;8.54;100.00
13765;BME280;6953;48.810;9.204;2023-12-20T02:41:42;98564.41;;;7.16;100.00
13765;BME280;6953;48.810;9.204;2023-12-20T02:44:07;98756.44;;;8.25;100.00
13765;BME280;6953;48.810;9.204;2023-12-20T02:46:32;98703.03;;;8.11;100.00
13765;BME280;6953;48.810;9.204;2023-12-20T02:48:58;98770.22;;;8.48;100.00
13765;BME280;6953;48.810;9.204;2023-12-20T02:51:23;98758.38;;;8.40;100.00
13765;BME280;6953;48.810;9.204;2023-12-20T02:53:48;98594.34;;;7.27;100.00
13765;BME280;6953;48.810;9.204;2023-12-20T02:56:14;98768.59;;;8.46;100.00
13765;BME280;6953;48.810;9.204;2023-12-20T02:58:39;98714.13;;;8.16;100.00
13765;BME280;6953;48.810;9.204;2023-12-20T03:01:05;98722.81;;;8.18;100.00
13765;BME280;6953;48.810;9.204;2023-12-20T03:03:31;98583.44;;;7.39;100.00
13765;BME280;6953;48.810;9.204;2023-12-20T03:05:56;98686.19;;;7.98;100.00
13765;BME280;6953;48.810;9.204;2023-12-20T03:08:22;98747.34;;;8.33;100.00
13765;BME280;6953;48.810;9.204;2023-12-20T03:10:47;98698.47;;;7.96;100.00
13765;BME280;6953;48.810;9.204;2023-12-20T03:13:12;98536.16;;;7.05;100.00
13765;BME280;6953;48.810;9.204;2023-12-20T03:15:37;98615.25;;;7.47;100.00
13765;BME280;6953;48.810;9.204;2023-12-20T03:18:03;98758.06;;;8.27;100.00
13765;BME280;6953;48.810;9.204;2023-12-20T03:20:28;98484.09;;;6.62;100.00
13765;BME280;6953;48.810;9.204;2023-12-20T03:22:56;98780.34;;;8.36;100.00
13765;BME280;6953;48.810;9.204;2023-12-20T03:25:21;98823.63;;;8.43;100.00
13765;BME280;6953;48.810;9.204;2023-12-20T03:27:46;98494.91;;;6.73;100.00
13765;BME280;6953;48.810;9.204;2023-12-20T03:30:12;98787.88;;;8.43;100.00
13765;BME280;6953;48.810;9.204;2023-12-20T03:32:38;98748.72;;;8.22;100.00
13765;BME280;6953;48.810;9.204;2023-12-20T03:35:04;98619.66;;;7.46;100.00
13765;BME280;6953;48.810;9.204;2023-12-20T03:37:29;98697.13;;;7.86;100.00
13765;BME280;6953;48.810;9.204;2023-12-20T03:39:55;98784.63;;;8.38;100.00
13765;BME280;6953;48.810;9.204;2023-12-20T03:42:20;98707.34;;;7.92;100.00
13765;BME280;6953;48.810;9.204;2023-12-20T03:44:45;98765.94;;;8.06;100.00
13765;BME280;6953;48.810;9.204;2023-12-20T03:47:11;98773.69;;;8.08;100.00
13765;BME280;6953;48.810;9.204;2023-12-20T03:49:36;98803.13;;;8.34;100.00
13765;BME280;6953;48.810;9.204;2023-12-20T03:52:04;98513.59;;;6.63;100.00
13765;BME280;6953;48.810;9.204;2023-12-20T03:54:29;98725.16;;;7.82;100.00
13765;BME280;6953;48.810;9.204;2023-12-20T03:56:54;98800.09;;;8.23;100.00
13765;BME280;6953;48.810;9.204;2023-12-20T03:59:20;98805.31;;;8.23;100.00
13765;BME280;6953;48.810;9.204;2023-12-20T04:01:45;98794.28;;;8.17;100.00
13765;BME280;6953;48.810;9.204;2023-12-20T04:04:11;98805.84;;;8.10;100.00
13765;BME280;6953;48.810;9.204;2023-12-20T04:06:37;98487.28;;;6.26;100.00
13765;BME280;6953;48.810;9.204;2023-12-20T04:09:03;98802.63;;;8.03;100.00
13765;BME280;6953;48.810;9.204;2023-12-20T04:11:28;98559.81;;;6.58;100.00
13765;BME280;6953;48.810;9.204;2023-12-20T04:13:53;98801.44;;;7.90;100.00
13765;BME280;6953;48.810;9.204;2023-12-20T04:16:19;98794.41;;;7.92;100.00
13765;BME280;6953;48.810;9.204;2023-12-20T04:18:44;98828.28;;;7.94;100.00
13765;BME280;6953;48.810;9.204;2023-12-20T04:21:09;98557.41;;;6.53;100.00
13765;BME280;6953;48.810;9.204;2023-12-20T04:23:35;98810.66;;;7.77;100.00
13765;BME280;6953;48.810;9.204;2023-12-20T04:26:00;98801.69;;;7.84;100.00
13765;BME280;6953;48.810;9.204;2023-12-20T04:28:25;98592.91;;;6.56;100.00
13765;BME280;6953;48.810;9.204;2023-12-20T04:30:50;98825.75;;;7.92;100.00
13765;BME280;6953;48.810;9.204;2023-12-20T04:33:16;98743.22;;;7.45;100.00
13765;BME280;6953;48.810;9.204;2023-12-20T04:35:41;98825.75;;;7.92;100.00
13765;BME280;6953;48.810;9.204;2023-12-20T04:38:08;98639.34;;;6.91;100.00
13765;BME280;6953;48.810;9.204;2023-12-20T04:40:33;98838.00;;;7.90;100.00
13765;BME280;6953;48.810;9.204;2023-12-20T04:42:59;98633.88;;;6.75;100.00
13765;BME280;6953;48.810;9.204;2023-12-20T04:45:24;98816.56;;;7.82;100.00
13765;BME280;6953;48.810;9.204;2023-12-20T04:47:50;98837.94;;;7.92;100.00
13765;BME280;6953;48.810;9.204;2023-12-20T04:50:15;98844.88;;;7.93;100.00
13765;BME280;6953;48.810;9.204;2023-12-20T04:52:41;98839.59;;;7.94;100.00
13765;BME280;6953;48.810;9.204;2023-12-20T04:55:07;98836.13;;;7.94;100.00
13765;BME280;6953;48.810;9.204;2023-12-20T04:57:34;98643.44;;;6.75;100.00
13765;BME280;6953;48.810;9.204;2023-12-20T04:59:59;98813.16;;;7.80;100.00
13765;BME280;6953;48.810;9.204;2023-12-20T05:02:24;98837.94;;;7.92;100.00
13765;BME280;6953;48.810;9.204;2023-12-20T05:04:50;98850.03;;;7.94;100.00
13765;BME280;6953;48.810;9.204;2023-12-20T05:07:15;98637.56;;;6.70;100.00
13765;BME280;6953;48.810;9.204;2023-12-20T05:09:40;98582.19;;;6.42;100.00
13765;BME280;6953;48.810;9.204;2023-12-20T05:12:06;98846.34;;;8.00;100.00
13765;BME280;6953;48.810;9.204;2023-12-20T05:14:32;98643.38;;;6.76;100.00
13765;BME280;6953;48.810;9.204;2023-12-20T05:16:57;98838.72;;;7.94;100.00
13765;BME280;6953;48.810;9.204;2023-12-20T05:19:23;98886.66;;;7.93;100.00
13765;BME280;6953;48.810;9.204;2023-12-20T05:21:49;98847.81;;;7.62;100.00
13765;BME280;6953;48.810;9.204;2023-12-20T05:24:14;98614.16;;;6.45;100.00
13765;BME280;6953;48.810;9.204;2023-12-20T05:26:39;98773.81;;;7.42;100.00
13765;BME280;6953;48.810;9.204;2023-12-20T05:29:05;98621.19;;;6.43;100.00
13765;BME280;6953;48.810;9.204;2023-12-20T05:31:31;98872.28;;;7.83;100.00
13765;BME280;6953;48.810;9.204;2023-12-20T05:33:58;98617.88;;;6.40;100.00
13765;BME280;6953;48.810;9.204;2023-12-20T05:36:23;98870.25;;;7.89;100.00
13765;BME280;6953;48.810;9.204;2023-12-20T05:38:48;98798.16;;;7.42;100.00
13765;BME280;6953;48.810;9.204;2023-12-20T05:41:14;98798.94;;;7.44;100.00
13765;BME280;6953;48.810;9.204;2023-12-20T05:43:39;98904.16;;;7.91;100.00
13765;BME280;6953;48.810;9.204;2023-12-20T05:46:04;98898.00;;;7.92;100.00
13765;BME280;6953;48.810;9.204;2023-12-20T05:48:30;98670.88;;;6.62;100.00
13765;BME280;6953;48.810;9.204;2023-12-20T05:50:55;98892.75;;;7.93;100.00
13765;BME280;6953;48.810;9.204;2023-12-20T05:53:20;98682.16;;;6.62;100.00
13765;BME280;6953;48.810;9.204;2023-12-20T05:55:46;98904.09;;;7.92;100.00
13765;BME280;6953;48.810;9.204;2023-12-20T05:58:11;98890.56;;;7.83;100.00
13765;BME280;6953;48.810;9.204;2023-12-20T06:00:36;98843.13;;;7.49;100.00
13765;BME280;6953;48.810;9.204;2023-12-20T06:03:02;98911.03;;;7.93;100.00
13765;BME280;6953;48.810;9.204;2023-12-20T06:05:27;98902.81;;;7.81;100.00
13765;BME280;6953;48.810;9.204;2023-12-20T06:07:53;98677.56;;;6.46;100.00
13765;BME280;6953;48.810;9.204;2023-12-20T06:10:19;98743.91;;;6.83;100.00
13765;BME280;6953;48.810;9.204;2023-12-20T06:12:45;98923.13;;;7.96;100.00
13765;BME280;6953;48.810;9.204;2023-12-20T06:15:12;98819.09;;;7.41;100.00
13765;BME280;6953;48.810;9.204;2023-12-20T06:17:37;98621.88;;;6.25;100.00
13765;BME280;6953;48.810;9.204;2023-12-20T06:20:03;98921.09;;;8.02;100.00
13765;BME280;6953;48.810;9.204;2023-12-20T06:22:32;98671.09;;;6.56;100.00
13765;BME280;6953;48.810;9.204;2023-12-20T06:24:58;98948.03;;;8.04;100.00
13765;BME280;6953;48.810;9.204;2023-12-20T06:27:23;98922.94;;;8.00;100.00
13765;BME280;6953;48.810;9.204;2023-12-20T06:29:48;98941.19;;;8.02;100.00
13765;BME280;6953;48.810;9.204;2023-12-20T06:32:13;98939.06;;;8.11;100.00
13765;BME280;6953;48.810;9.204;2023-12-20T06:34:39;98941.47;;;8.16;100.00
13765;BME280;6953;48.810;9.204;2023-12-20T06:37:04;98660.34;;;6.65;100.00
13765;BME280;6953;48.810;9.204;2023-12-20T06:39:30;98906.91;;;8.09;100.00
13765;BME280;6953;48.810;9.204;2023-12-20T06:41:55;98932.56;;;8.21;100.00
13765;BME280;6953;48.810;9.204;2023-12-20T06:44:21;98927.53;;;8.17;100.00
13765;BME280;6953;48.810;9.204;2023-12-20T06:46:46;98935.00;;;8.25;100.00
13765;BME280;6953;48.810;9.204;2023-12-20T06:49:11;98696.94;;;6.85;100.00
13765;BME280;6953;48.810;9.204;2023-12-20T06:51:37;98939.31;;;8.26;100.00
13765;BME280;6953;48.810;9.204;2023-12-20T06:54:02;98940.19;;;8.27;100.00
13765;BME280;6953;48.810;9.204;2023-12-20T06:56:28;98919.84;;;8.12;100.00
13765;BME280;6953;48.810;9.204;2023-12-20T06:58:53;98709.75;;;6.91;100.00
13765;BME280;6953;48.810;9.204;2023-12-20T07:01:18;98958.06;;;8.37;100.00
13765;BME280;6953;48.810;9.204;2023-12-20T07:03:44;98955.38;;;8.39;100.00
13765;BME280;6953;48.810;9.204;2023-12-20T07:06:09;98764.06;;;7.24;100.00
13765;BME280;6953;48.810;9.204;2023-12-20T07:08:34;98969.19;;;8.42;100.00
13765;BME280;6953;48.810;9.204;2023-12-20T07:11:00;98713.00;;;6.96;100.00
13765;BME280;6953;48.810;9.204;2023-12-20T07:13:25;98975.31;;;8.41;100.00
13765;BME280;6953;48.810;9.204;2023-12-20T07:15:50;98973.63;;;8.40;100.00
13765;BME280;6953;48.810;9.204;2023-12-20T07:18:16;98979.75;;;8.39;100.00
13765;BME280;6953;48.810;9.204;2023-12-20T07:20:41;98981.56;;;8.37;100.00
13765;BME280;6953;48.810;9.204;2023-12-20T07:23:06;98990.25;;;8.38;100.00
13765;BME280;6953;48.810;9.204;2023-12-20T07:25:31;98624.59;;;6.22;100.00
13765;BME280;6953;48.810;9.204;2023-12-20T07:27:58;98935.25;;;7.97;100.00
13765;BME280;6953;48.810;9.204;2023-12-20T07:30:23;98936.47;;;7.88;100.00
13765;BME280;6953;48.810;9.204;2023-12-20T07:32:48;99007.16;;;8.29;100.00
13765;BME280;6953;48.810;9.204;2023-12-20T07:35:15;99006.44;;;8.26;100.00
13765;BME280;6953;48.810;9.204;2023-12-20T07:37:40;98997.50;;;8.09;100.00
13765;BME280;6953;48.810;9.204;2023-12-20T07:40:06;99023.41;;;8.15;100.00
13765;BME280;6953;48.810;9.204;2023-12-20T07:42:32;99031.31;;;8.13;100.00
13765;BME280;6953;48.810;9.204;2023-12-20T07:44:58;99019.97;;;8.13;100.00
13765;BME280;6953;48.810;9.204;2023-12-20T07:47:23;99012.63;;;8.01;100.00
13765;BME280;6953;48.810;9.204;2023-12-20T07:49:50;98762.66;;;6.47;100.00
13765;BME280;6953;48.810;9.204;2023-12-20T07:52:16;99060.84;;;7.92;100.00
13765;BME280;6953;48.810;9.204;2023-12-20T07:54:42;99018.06;;;7.95;100.00
13765;BME280;6953;48.810;9.204;2023-12-20T07:57:07;99023.47;;;7.90;100.00
13765;BME280;6953;48.810;9.204;2023-12-20T07:59:33;98836.13;;;6.81;100.00
13765;BME280;6953;48.810;9.204;2023-12-20T08:01:58;98725.91;;;6.06;100.00
13765;BME280;6953;48.810;9.204;2023-12-20T08:04:23;99007.09;;;7.62;100.00
13765;BME280;6953;48.810;9.204;2023-12-20T08:06:49;99077.97;;;7.52;100.00
13765;BME280;6953;48.810;9.204;2023-12-20T08:09:14;99028.16;;;7.33;100.00
13765;BME280;6953;48.810;9.204;2023-12-20T08:11:39;98964.88;;;6.78;100.00
13765;BME280;6953;48.810;9.204;2023-12-20T08:14:09;99059.44;;;7.09;100.00
13765;BME280;6953;48.810;9.204;2023-12-20T08:16:34;98980.22;;;6.61;100.00
13765;BME280;6953;48.810;9.204;2023-12-20T08:19:00;98878.09;;;5.97;100.00
13765;BME280;6953;48.810;9.204;2023-12-20T08:21:25;99070.81;;;6.81;100.00
13765;BME280;6953;48.810;9.204;2023-12-20T08:23:51;99060.09;;;6.90;100.00
13765;BME280;6953;48.810;9.204;2023-12-20T08:26:19;99062.28;;;7.02;100.00
13765;BME280;6953;48.810;9.204;2023-12-20T08:28:46;99034.47;;;7.02;100.00
13765;BME280;6953;48.810;9.204;2023-12-20T08:31:15;99050.84;;;7.31;100.00
13765;BME280;6953;48.810;9.204;2023-12-20T08:33:44;99056.44;;;7.21;100.00
13765;BME280;6953;48.810;9.204;2023-12-20T08:36:10;99062.75;;;7.14;100.00
13765;BME280;6953;48.810;9.204;2023-12-20T08:38:36;99082.00;;;7.10;100.00
13765;BME280;6953;48.810;9.204;2023-12-20T08:41:02;99080.28;;;7.09;100.00
13765;BME280;6953;48.810;9.204;2023-12-20T08:43:36;98835.19;;;5.54;100.00
13765;BME280;6953;48.810;9.204;2023-12-20T08:46:01;99093.66;;;7.00;100.00
13765;BME280;6953;48.810;9.204;2023-12-20T08:48:28;99085.16;;;6.94;100.00
13765;BME280;6953;48.810;9.204;2023-12-20T08:50:53;98979.47;;;6.30;100.00
13765;BME280;6953;48.810;9.204;2023-12-20T08:53:18;99089.63;;;6.90;100.00
13765;BME280;6953;48.810;9.204;2023-12-20T08:55:44;98907.13;;;5.85;100.00
13765;BME280;6953;48.810;9.204;2023-12-20T08:58:10;99004.03;;;6.49;100.00
13765;BME280;6953;48.810;9.204;2023-12-20T09:00:35;99085.03;;;6.98;100.00
13765;BME280;6953;48.810;9.204;2023-12-20T09:03:04;99085.56;;;7.08;100.00
13765;BME280;6953;48.810;9.204;2023-12-20T09:05:29;99075.03;;;7.11;100.00
13765;BME280;6953;48.810;9.204;2023-12-20T09:07:55;98783.44;;;5.45;100.00
13765;BME280;6953;48.810;9.204;2023-12-20T09:10:20;99079.69;;;7.27;100.00
13765;BME280;6953;48.810;9.204;2023-12-20T09:12:51;99121.94;;;7.38;100.00
13765;BME280;6953;48.810;9.204;2023-12-20T09:15:17;98994.00;;;6.91;100.00
13765;BME280;6953;48.810;9.204;2023-12-20T09:17:42;99043.84;;;7.32;100.00
13765;BME280;6953;48.810;9.204;2023-12-20T09:20:09;99080.91;;;7.67;100.00
13765;BME280;6953;48.810;9.204;2023-12-20T09:22:34;99075.19;;;7.81;100.00
13765;BME280;6953;48.810;9.204;2023-12-20T09:25:01;99086.88;;;8.18;100.00
13765;BME280;6953;48.810;9.204;2023-12-20T09:27:27;99038.81;;;10.44;92.87
13765;BME280;6953;48.810;9.204;2023-12-20T09:29:52;99093.59;;;14.06;73.55
13765;BME280;6953;48.810;9.204;2023-12-20T09:32:18;98994.34;;;16.50;61.21
13765;BME280;6953;48.810;9.204;2023-12-20T09:34:45;99070.63;;;18.87;48.19
13765;BME280;6953;48.810;9.204;2023-12-20T09:37:10;99069.88;;;19.49;44.33
13765;BME280;6953;48.810;9.204;2023-12-20T09:39:36;99077.88;;;20.21;41.11
13765;BME280;6953;48.810;9.204;2023-12-20T09:42:04;99083.91;;;20.94;38.43
13765;BME280;6953;48.810;9.204;2023-12-20T09:44:31;98908.56;;;20.57;35.68
13765;BME280;6953;48.810;9.204;2023-12-20T09:46:58;99108.38;;;21.76;34.37
13765;BME280;6953;48.810;9.204;2023-12-20T09:49:23;99048.63;;;21.58;33.75
13765;BME280;6953;48.810;9.204;2023-12-20T09:51:50;99086.16;;;21.85;32.55
13765;BME280;6953;48.810;9.204;2023-12-20T09:54:17;98937.94;;;21.89;31.28
13765;BME280;6953;48.810;9.204;2023-12-20T09:56:43;98947.97;;;22.50;30.23
13765;BME280;6953;48.810;9.204;2023-12-20T09:59:09;99115.22;;;23.00;29.19
13765;BME280;6953;48.810;9.204;2023-12-20T10:01:35;99063.34;;;22.19;29.33
13765;BME280;6953;48.810;9.204;2023-12-20T10:04:05;99035.50;;;21.93;30.07
13765;BME280;6953;48.810;9.204;2023-12-20T10:06:34;98886.00;;;21.17;29.56
13765;BME280;6953;48.810;9.204;2023-12-20T10:09:00;99105.81;;;22.31;29.50
13765;BME280;6953;48.810;9.204;2023-12-20T10:11:25;99132.78;;;22.66;28.85
13765;BME280;6953;48.810;9.204;2023-12-20T10:13:50;99061.53;;;22.65;28.73
13765;BME280;6953;48.810;9.204;2023-12-20T10:16:15;98922.69;;;21.25;29.71
13765;BME280;6953;48.810;9.204;2023-12-20T10:18:41;99080.50;;;20.92;31.68
13765;BME280;6953;48.810;9.204;2023-12-20T10:21:06;99079.00;;;20.19;31.91
13765;BME280;6953;48.810;9.204;2023-12-20T10:23:35;99086.09;;;18.60;34.27
13765;BME280;6953;48.810;9.204;2023-12-20T10:26:01;99037.47;;;16.27;39.20
13765;BME280;6953;48.810;9.204;2023-12-20T10:28:26;99060.38;;;14.59;45.45
13765;BME280;6953;48.810;9.204;2023-12-20T10:30:55;98986.06;;;12.64;51.02
13765;BME280;6953;48.810;9.204;2023-12-20T10:33:27;99068.41;;;12.20;56.79
13765;BME280;6953;48.810;9.204;2023-12-20T10:35:57;99074.59;;;11.69;59.33
13765;BME280;6953;48.810;9.204;2023-12-20T10:38:22;99075.94;;;11.42;61.47
13765;BME280;6953;48.810;9.204;2023-12-20T10:40:49;99062.91;;;11.41;63.28
13765;BME280;6953;48.810;9.204;2023-12-20T10:43:19;99076.06;;;11.23;64.25
13765;BME280;6953;48.810;9.204;2023-12-20T10:45:45;99091.00;;;10.87;65.72
13765;BME280;6953;48.810;9.204;2023-12-20T10:48:10;98945.84;;;9.77;67.96
13765;BME280;6953;48.810;9.204;2023-12-20T10:50:37;98935.50;;;9.36;70.35
13765;BME280;6953;48.810;9.204;2023-12-20T10:53:03;99075.31;;;9.72;71.82
13765;BME280;6953;48.810;9.204;2023-12-20T10:55:29;98990.47;;;8.96;73.81
13765;BME280;6953;48.810;9.204;2023-12-20T10:58:18;99060.72;;;9.27;75.01
13765;BME280;6953;48.810;9.204;2023-12-20T11:00:43;99068.63;;;9.05;76.02
13765;BME280;6953;48.810;9.204;2023-12-20T11:03:11;99064.44;;;9.00;76.31
13765;BME280;6953;48.810;9.204;2023-12-20T11:05:54;99048.47;;;8.86;75.52
13765;BME280;6953;48.810;9.204;2023-12-20T11:11:07;98998.38;;;8.75;75.33
13765;BME280;6953;48.810;9.204;2023-12-20T11:13:41;98839.53;;;8.17;73.32
13765;BME280;6953;48.810;9.204;2023-12-20T11:16:10;98799.06;;;8.47;71.79
13765;BME280;6953;48.810;9.204;2023-12-20T11:18:35;98876.69;;;9.25;69.60
13765;BME280;6953;48.810;9.204;2023-12-20T11:21:02;99060.44;;;10.31;69.65
13765;BME280;6953;48.810;9.204;2023-12-20T11:23:29;99031.34;;;10.18;69.26
13765;BME280;6953;48.810;9.204;2023-12-20T11:25:56;99049.69;;;10.18;69.48
13765;BME280;6953;48.810;9.204;2023-12-20T11:28:26;99085.47;;;10.19;69.88
13765;BME280;6953;48.810;9.204;2023-12-20T11:30:55;98767.44;;;8.53;70.23
13765;BME280;6953;48.810;9.204;2023-12-20T11:33:25;99076.59;;;10.22;70.45
13765;BME280;6953;48.810;9.204;2023-12-20T11:35:51;99015.25;;;9.87;70.22
13765;BME280;6953;48.810;9.204;2023-12-20T11:38:20;98678.72;;;7.89;69.87
13765;BME280;6953;48.810;9.204;2023-12-20T11:40:48;98770.22;;;8.48;70.33
13765;BME280;6953;48.810;9.204;2023-12-20T11:43:29;99041.72;;;10.01;67.47
13765;BME280;6953;48.810;9.204;2023-12-20T11:45:54;98942.22;;;9.41;68.33
13765;BME280;6953;48.810;9.204;2023-12-20T11:48:20;99049.09;;;10.12;68.91
13765;BME280;6953;48.810;9.204;2023-12-20T11:50:46;98956.22;;;9.60;69.15
13765;BME280;6953;48.810;9.204;2023-12-20T11:53:11;98977.31;;;9.57;69.20
13765;BME280;6953;48.810;9.204;2023-12-20T11:55:37;98970.06;;;9.44;69.53
13765;BME280;6953;48.810;9.204;2023-12-20T11:58:02;99044.84;;;9.89;68.55
13765;BME280;6953;48.810;9.204;2023-12-20T12:00:28;99077.56;;;9.81;67.85
13765;BME280;6953;48.810;9.204;2023-12-20T12:03:00;98863.72;;;8.63;67.91
13765;BME280;6953;48.810;9.204;2023-12-20T12:05:28;99024.91;;;9.67;69.16
13765;BME280;6953;48.810;9.204;2023-12-20T12:07:53;98958.50;;;9.29;68.76
13765;BME280;6953;48.810;9.204;2023-12-20T12:10:18;99036.34;;;9.84;69.05
13765;BME280;6953;48.810;9.204;2023-12-20T12:12:44;99058.66;;;10.13;68.59
13765;BME280;6953;48.810;9.204;2023-12-20T12:15:09;98933.78;;;9.92;68.04
13765;BME280;6953;48.810;9.204;2023-12-20T12:17:35;99020.09;;;10.51;66.84
13765;BME280;6953;48.810;9.204;2023-12-20T12:20:04;98787.53;;;9.27;66.01
13765;BME280;6953;48.810;9.204;2023-12-20T12:22:30;98881.81;;;9.83;65.91
13765;BME280;6953;48.810;9.204;2023-12-20T12:24:59;99047.25;;;10.87;65.53
13765;BME280;6953;48.810;9.204;2023-12-20T12:27:24;99014.03;;;10.86;64.26
13765;BME280;6953;48.810;9.204;2023-12-20T12:30:03;99007.13;;;10.84;64.83
13765;BME280;6953;48.810;9.204;2023-12-20T12:32:29;98823.97;;;9.69;64.48
13765;BME280;6953;48.810;9.204;2023-12-20T12:34:54;99006.03;;;10.71;64.94
13765;BME280;6953;48.810;9.204;2023-12-20T12:37:19;98997.22;;;11.58;61.93
13765;BME280;6953;48.810;9.204;2023-12-20T12:39:46;98945.78;;;12.48;55.57
13765;BME280;6953;48.810;9.204;2023-12-20T12:45:33;98994.25;;;10.96;62.04
13765;BME280;6953;48.810;9.204;2023-12-20T12:51:20;98908.09;;;11.04;60.16
13765;BME280;6953;48.810;9.204;2023-12-20T12:53:46;98712.47;;;9.63;60.75
13765;BME280;6953;48.810;9.204;2023-12-20T12:56:12;98945.34;;;10.60;62.89
13765;BME280;6953;48.810;9.204;2023-12-20T12:58:38;99040.66;;;10.79;63.82
13765;BME280;6953;48.810;9.204;2023-12-20T13:01:03;98931.72;;;10.18;64.69
13765;BME280;6953;48.810;9.204;2023-12-20T13:03:28;98982.28;;;10.38;65.73
13765;BME280;6953;48.810;9.204;2023-12-20T13:05:54;98982.91;;;10.25;66.38
13765;BME280;6953;48.810;9.204;2023-12-20T13:08:20;98739.63;;;8.89;66.50
13765;BME280;6953;48.810;9.204;2023-12-20T13:10:45;98957.56;;;10.26;66.05
13765;BME280;6953;48.810;9.204;2023-12-20T13:13:10;98998.41;;;10.48;66.59
13765;BME280;6953;48.810;9.204;2023-12-20T13:15:36;98997.31;;;10.35;66.99